Messwerte Petawawa

Temperatur

Temperatur
°C
1575518400 23.00 23.00 0
1575522000 0.00 0.00 -1
1575525600 1.00 1.00
1575529200 2.00 2.00 -1
1575532800 3.00 3.00 -1
1575536400 4.00 4.00 -3
1575540000 5.00 5.00 -4
1575543600 6.00 6.00 -4
1575547200 7.00 7.00 -5
1575550800 8.00 8.00 -5
1575554400 9.00 9.00 -5
1575558000 10.00 10.00 -5
1575561600 11.00 11.00
1575565200 12.00 12.00 -5
1575568800 13.00 13.00 -4
1575572400 14.00 14.00 -4
1575576000 15.00 15.00 -4
1575579600 16.00 16.00 -4
1575583200 17.00 17.00 -4
1575586800 18.00 18.00 -4
1575590400 19.00 19.00 -4
1575594000 20.00 20.00 -4
1575597600 21.00 21.00 -4
1575601200 22.00 22.00 -4

Aktuellste Messwerte

Wettercharakter
Wetter: bedeckt
Temperatur
-4 °C
Feuchtigkeit
75 %
Wind
10 km/hWindrichtung: West
Luftdruck
1015 hPa
Messzeit: 5. Dezember 2019, 22.00Datenquelle: METAR

Weitere Messstationen in der Nähe

Messstation Temperatur Entfernung
Maniwaki -10 °C 93 km
Bancroft -12 °C 107 km
High Falls -6 °C 130 km
Gatineau -4 °C 144 km
Ottawa -4 °C 146 km
North Bay -8 °C 168 km
Kemptville Cs -4 °C 169 km

Wind

Windrichtung Böen Mittelwind
° km/h km/h
1575518400 23.00 22.00 - 23.00 300° 5
1575522000 0.00 23.00 - 0.00 290° 10
1575525600 1.00 0.00 - 1.00
1575529200 2.00 1.00 - 2.00 320° 15
1575532800 3.00 2.00 - 3.00 300° 15
1575536400 4.00 3.00 - 4.00 310° 30 15
1575540000 5.00 4.00 - 5.00 300° 15
1575543600 6.00 5.00 - 6.00 290° 15
1575547200 7.00 6.00 - 7.00 310° 20
1575550800 8.00 7.00 - 8.00 300° 10
1575554400 9.00 8.00 - 9.00 300° 10
1575558000 10.00 9.00 - 10.00 300° 15
1575561600 11.00 10.00 - 11.00
1575565200 12.00 11.00 - 12.00 290° 30 20
1575568800 13.00 12.00 - 13.00 310° 15
1575572400 14.00 13.00 - 14.00 310° 20
1575576000 15.00 14.00 - 15.00 290° 30 20
1575579600 16.00 15.00 - 16.00 290° 30 15
1575583200 17.00 16.00 - 17.00 300° 20
1575586800 18.00 17.00 - 18.00 280° 15
1575590400 19.00 18.00 - 19.00 280° 20
1575594000 20.00 19.00 - 20.00 300° 15
1575597600 21.00 20.00 - 21.00 280° 10
1575601200 22.00 21.00 - 22.00 280° 10

Ihre Wetterstation

Fehlt Ihre Wetterstation auf unserem Portal?

Schreiben Sie an network@meteonews.ch

Klima

Wann ist es am wärmsten? Wann regnet es am wenigsten? Unsere Klimadaten geben Auskunft.